URWIURWA

Guest
Details From URWI - ELISTA
To URWA - ASTRAKHAN
Flight Number -
Tags generated
Created
Modified
Stats Distance 153 nm / 284 km
Max Altitude 9,300 ft / 2,835 m
Waypoints 3
Social Downloads 0
Likes 0
Share VATSIM

Download

Looking for another format? Having issues loading an existing format? Contact us
Advertisement - Login to hide

Notes

Basic altitude profile: - Ascent Rate: 2500ft/min - Ascent Speed: 250kts - Cruise Altitude: 35000ft - Cruise Speed: 420kts - Descent Rate: 1500ft/min - Descent Speed: 250kts Options: - Use NATs: yes - Use PACOTS: yes - Use low airways: yes - Use high airways: yes

Route

URWI BASKO URWA

ID Type Via Altitude Latitude Longitude Leg Dist Tot Dist Heading (true) Name
O URWI APT - 0 ft / 0 m 46.37421˚ 44.33139˚ - 0 nm - ELISTA
BASKO FIX - 9,300 ft / 2,835 m 46.20000˚ 46.84861˚ 104 nm 104 nm 95° / 97° -
O URWA APT - 0 ft / 0 m 46.28073˚ 48.00619˚ 48 nm 153 nm 84° / 85° ASTRAKHAN

Altitude Profile

Advertisement - Login to hide

URWI

Details ICAO URWI (ESL)
Name ELISTA
Region Russia
Timezone Europe/Moscow (UTC+3.0)
Stats Elevation 501 ft / 153 m (AMSL)
Location 46.374210° 44.331387°
Runways 2
Magnetic Variation 8.217° E

METAR

URWI 130800Z 17008MPS CAVOK 07/02 Q1023 R09/010065 TEMPO 2000 BR SCT005

Decode

TAF

Not found

Departure Runways

ID Width Length Bearing (true) Bearing (mag) Surface Threshold Offset Overrun Length
09 148 ft / 45 m 6,913 ft / 2,107 m 97.79° 89.57° Asphalt 0 ft / 0 m 0 ft / 0 m
09L 280 ft / 85 m 7,535 ft / 2,297 m 97.48° 89.26° Dirt 0 ft / 0 m 0 ft / 0 m
27 148 ft / 45 m 6,913 ft / 2,107 m 277.81° 269.59° Asphalt 0 ft / 0 m 160 ft / 49 m
27R 280 ft / 85 m 7,535 ft / 2,297 m 277.50° 269.28° Dirt 0 ft / 0 m 0 ft / 0 m

URWA

Details ICAO URWA (ASF)
Name ASTRAKHAN
Region Russia
Timezone Europe/Volgograd (UTC+3.0)
Stats Elevation -65 ft / -20 m (AMSL)
Location 46.280732° 48.006186°
Runways 2
Magnetic Variation 8.390° E

METAR

URWA 130800Z 15004MPS 1800 0900NE R09/0900U FG OVC003 04/03 Q1029 R09/010060 NOSIG RMK OBST OBSC QFE774/1032

Decode

TAF

Not found

Destination Runways

ID Width Length Bearing (true) Bearing (mag) Surface Threshold Offset Overrun Length
09 138 ft / 42 m 8,181 ft / 2,494 m 96.01° 87.62° Concrete 0 ft / 0 m 165 ft / 50 m
11 330 ft / 101 m 5,083 ft / 1,549 m 120.87° 112.48° Grass 0 ft / 0 m 0 ft / 0 m
27 138 ft / 42 m 8,181 ft / 2,494 m 276.03° 267.64° Concrete 0 ft / 0 m 165 ft / 50 m
29 330 ft / 101 m 5,083 ft / 1,549 m 300.88° 292.49° Grass 0 ft / 0 m 0 ft / 0 m

Popular Alternatives